默认 日期 大小 文件数 浏览量 最新下载 xml
133-磁力链接相关资源由用户搜索指令自动获取,结果来源于网络,本站不存储任何资料,亦不承担任何责任,请于24小时内删除,搜索到8130个磁力,显示前4000条数据,用时4ms。
    {"1.jpg": 151230, "2.jpg": 1620731, "3.jpg": 1513699, "[email protected]": 90, "tongnian@草榴社区.txt": 1111, "tongnian@18p2p最新地址.mht": 468, "biaoqian@sex8性吧最新地址.mht": 466, "tongnian@爱唯侦察最新地址.mht": 10991, "tongnian@草榴社区最新地址.mht": 463, "★少妇 论坛 限量开放中。。.mht": ...
创建时间: 2020-05-29 08:51:34 大小:768.73 MB 文件数量:33 热度:52 最近下载:2025-08-25 21:16:02
    {"tracked_by_h33t_com.txt": 185, "Digital_Photographer_-_Issue_133,_2013.tgz": 31158609, "Torrent Downloaded From ExtraTorrent.com.txt": 339}
创建时间: 2020-05-29 18:41:37 大小:29.72 MB 文件数量:3 热度:7 最近下载:2025-03-31 06:37:02
    {"[Fullmetal] Inuyasha - 133 [1080p][HEVC 10bits].mkv": 228609613, "[ ...
创建时间: 2020-05-30 06:55:03 大小:8.61 GB 文件数量:35 热度:4 最近下载:2025-03-10 15:33:01
    ... 【sex8.cc】ddb-133 -好色的夫人 ...
创建时间: 2020-05-31 17:32:39 大小:1.06 GB 文件数量:10 热度:43 最近下载:2025-08-21 23:49:02
    ... 中文字幕)RHJ-133.mp4": 933825719, "_____padding_file_0_如果 ...
创建时间: 2020-06-01 16:42:09 大小:927.72 MB 文件数量:13 热度:12 最近下载:2025-08-01 08:53:08
    {"cover.jpg": 123047, "VIP Server.txt": 836, "16-Parade-Perfume.mp3": 7354327, "More Great torrents.txt": 786, "21-Wombats-Techno_Fan.mp3": 9178203, "12-Avril_Lavigne-Smile.mp3": 8389985, "17-Saturdays-Notorious.mp3": 7704077, "14-Nicki_Minaj-Super_Bass. ...
创建时间: 2020-06-01 20:45:07 大小:177.27 MB 文件数量:26 热度:5 最近下载:2025-02-03 06:31:02
    {"Scans": {"CD.jpeg": 4052454, "Back.jpeg": 7414597, "Front.jpeg": 10233993, "Back Inside.jpeg": 7948951, "Front Inside.jpeg": 13265345}, "Lucky House Vol.4.cue": 2904, "Lucky House Vol.4.jpg": 157409, "Lucky House Vol.4.log": 13751, "12 Susi - Believe ( ...
创建时间: 2020-06-02 07:11:37 大小:599.75 MB 文件数量:22 热度:5 最近下载:2025-09-27 17:46:03
    {"UUE29.mp4": 65753642, "sdab-133.mp4": 6128429187, "安卓二维码.png": 23947, "最新地址获取.txt": 491, "扫码获取最新地址.png": 22116}
创建时间: 2020-06-02 13:43:12 大小:5.77 GB 文件数量:5 热度:318 最近下载:2025-09-14 02:15:02
    {"poster.jpg": 22592, "screens.jpg": 182725, "RARBG.com.txt": 33, "WoodmanCastingX.Anissa.Kate.Updated.Casting.X.133.mp4": 790705905}
创建时间: 2020-06-02 15:36:40 大小:754.27 MB 文件数量:4 热度:7 最近下载:2025-01-10 18:31:09
    {"wendy_moon.jpg": 308434, "wendy_moon.960.mp4": 973451156, "Gfker@新片合集发布.mht": 493, "Gfker@1024核工厂欢迎您.mht": 483, "最新国模骚妻自拍免空合集.mht": 496, "_____padding_file_0_如果您看到此文件,请升级到BitComet(比特彗星)0.85或以上版本____": 261661, "_____padding_file_1_如果您看到此文件,请升级到BitComet(比特 ...
创建时间: 2020-06-03 05:47:00 大小:929.5 MB 文件数量:9 热度:4 最近下载:2025-02-20 21:02:04
    {"Solo (130 Bpm) - Iyaz.mp3": 5825520, "Rude Boy (87 Bpm) - Rihanna.mp3": 6638626, "Speedin' (136 Bpm) - Omarion.mp3": 7097993, "Flex (75 Bpm) - The Party Boyz.mp3": 7910048, "Fast Forward (125 Bpm) - Jaicko.mp3": 7901494, "Old Time's Sake (88 Bpm) - ...
创建时间: 2020-06-03 15:24:36 大小:92.14 MB 文件数量:13 热度:3 最近下载:2022-04-13 07:17:56
    {"[OFJE-133]S1ファン感謝祭BEST 大人気S級女優10人×一般ユーザー 夢のハメまくりスペシャル 38コーナー8時間.rar": 193133540}
创建时间: 2020-06-03 17:49:10 大小:184.19 MB 文件数量:1 热度:332 最近下载:2025-10-01 22:58:04
    {"HD_sdab-133.mp4": 2718619338, "JAV Torrent 掲示板.URL": 210, "Please Seeding!_ 請幫忙做種,謝謝!.txt": 12}
创建时间: 2020-06-03 22:10:47 大小:2.53 GB 文件数量:3 热度:9 最近下载:2021-06-17 16:25:58
    {"sdab-133.mp4": 6128429133, "老司机1080P高清~456k.me.url": 122, "亚博竞技娱乐APP。注册送28元:yabo765.com.url": 177}
创建时间: 2020-06-04 04:18:52 大小:5.71 GB 文件数量:3 热度:86 最近下载:2025-08-03 20:51:03
    ... , "@蜂鳥@fengniao131.vip-SDAB-133-2K.mp4": 2268491139, "疑似 ...
创建时间: 2020-06-04 17:07:24 大小:2.11 GB 文件数量:12 热度:161 最近下载:2025-08-04 04:25:12
    {"hey-4146-133.mp4": 2900388652}
创建时间: 2020-06-04 19:58:23 大小:2.7 GB 文件数量:1 热度:7 最近下载:2025-06-04 21:38:01
    {"vema-133-C.mp4": 1382504147, "万部影片在线观看.mp4": 11271485, "万部影片在线观看.url": 116, "点击观看 房间火爆 uuw62.com.mp4": 110610378}
创建时间: 2020-06-05 04:52:11 大小:1.4 GB 文件数量:4 热度:185 最近下载:2025-08-04 11:03:03
    {"01.jpg": 150747, "02.jpg": 37484, "03.jpg": 339985, "04.jpg": 274935, "05.jpg": 246158, "06.jpg": 265076, "07.jpg": 281310, "08.jpg": 276012, "09.jpg": 270908, "10.jpg": 266987, "11.jpg": 279841, "12.jpg": 265690, "13.jpg": 254699, "14.jpg": 310969, "15. ...
创建时间: 2020-06-05 09:16:03 大小:5.95 MB 文件数量:23 热度:7 最近下载:2025-07-09 17:48:01
    {"SDAB-133.mp4": 6157327949, "万部影片在线观看.mp4": 11271485, "万部影片在线观看.url": 116, "点击观看 房间火爆 uuw62.com.mp4": 110610378}
创建时间: 2020-06-05 13:26:55 大小:5.85 GB 文件数量:4 热度:84 最近下载:2025-08-01 06:23:03
    ... , "1 (132).jpg": 281670, "1 (133).jpg": 252897}
创建时间: 2020-06-05 23:53:04 大小:37.96 MB 文件数量:133 热度:12 最近下载:2025-08-02 06:27:04